sensor_id;sensor_type;location;lat;lon;timestamp;P1;durP1;ratioP1;P2;durP2;ratioP2
4646;SDS011;2336;47.822;7.564;2022-08-02T00:01:10;3.53;;;3.23;;
4646;SDS011;2336;47.822;7.564;2022-08-02T00:03:37;2.87;;;2.77;;
4646;SDS011;2336;47.822;7.564;2022-08-02T00:06:05;3.60;;;3.50;;
4646;SDS011;2336;47.822;7.564;2022-08-02T00:08:31;3.97;;;3.77;;
4646;SDS011;2336;47.822;7.564;2022-08-02T00:10:58;3.33;;;3.20;;
4646;SDS011;2336;47.822;7.564;2022-08-02T00:13:25;3.83;;;3.23;;
4646;SDS011;2336;47.822;7.564;2022-08-02T00:15:52;4.90;;;3.60;;
4646;SDS011;2336;47.822;7.564;2022-08-02T00:18:18;3.30;;;3.10;;
4646;SDS011;2336;47.822;7.564;2022-08-02T00:20:45;3.03;;;2.93;;
4646;SDS011;2336;47.822;7.564;2022-08-02T00:23:13;4.30;;;3.90;;
4646;SDS011;2336;47.822;7.564;2022-08-02T00:25:40;3.67;;;3.47;;
4646;SDS011;2336;47.822;7.564;2022-08-02T00:28:07;3.20;;;3.00;;
4646;SDS011;2336;47.822;7.564;2022-08-02T00:30:34;3.97;;;3.53;;
4646;SDS011;2336;47.822;7.564;2022-08-02T00:33:01;3.83;;;3.63;;
4646;SDS011;2336;47.822;7.564;2022-08-02T00:35:29;3.57;;;3.30;;
4646;SDS011;2336;47.822;7.564;2022-08-02T00:37:56;3.40;;;3.20;;
4646;SDS011;2336;47.822;7.564;2022-08-02T00:40:24;2.97;;;2.77;;
4646;SDS011;2336;47.822;7.564;2022-08-02T00:43:00;3.47;;;3.37;;
4646;SDS011;2336;47.822;7.564;2022-08-02T00:45:30;4.13;;;3.83;;
4646;SDS011;2336;47.822;7.564;2022-08-02T00:47:57;3.73;;;3.43;;
4646;SDS011;2336;47.822;7.564;2022-08-02T00:50:24;3.60;;;3.40;;
4646;SDS011;2336;47.822;7.564;2022-08-02T00:52:51;3.80;;;3.50;;
4646;SDS011;2336;47.822;7.564;2022-08-02T00:55:18;2.83;;;2.73;;
4646;SDS011;2336;47.822;7.564;2022-08-02T00:57:47;2.80;;;2.70;;
4646;SDS011;2336;47.822;7.564;2022-08-02T01:00:14;4.23;;;3.90;;
4646;SDS011;2336;47.822;7.564;2022-08-02T01:02:41;3.97;;;3.67;;
4646;SDS011;2336;47.822;7.564;2022-08-02T01:05:09;4.37;;;4.00;;
4646;SDS011;2336;47.822;7.564;2022-08-02T01:07:36;3.47;;;3.27;;
4646;SDS011;2336;47.822;7.564;2022-08-02T01:10:04;3.50;;;3.30;;
4646;SDS011;2336;47.822;7.564;2022-08-02T01:12:31;4.03;;;3.73;;
4646;SDS011;2336;47.822;7.564;2022-08-02T01:15:01;4.43;;;4.03;;
4646;SDS011;2336;47.822;7.564;2022-08-02T01:17:31;3.73;;;3.50;;
4646;SDS011;2336;47.822;7.564;2022-08-02T01:20:04;3.77;;;3.47;;
4646;SDS011;2336;47.822;7.564;2022-08-02T01:28:37;4.93;;;4.57;;
4646;SDS011;2336;47.822;7.564;2022-08-02T01:31:08;4.30;;;4.00;;
4646;SDS011;2336;47.822;7.564;2022-08-02T01:33:40;3.77;;;3.57;;
4646;SDS011;2336;47.822;7.564;2022-08-02T01:36:11;3.60;;;3.37;;
4646;SDS011;2336;47.822;7.564;2022-08-02T01:38:40;3.33;;;3.13;;
4646;SDS011;2336;47.822;7.564;2022-08-02T01:41:11;3.30;;;3.10;;
4646;SDS011;2336;47.822;7.564;2022-08-02T01:43:44;3.30;;;3.10;;
4646;SDS011;2336;47.822;7.564;2022-08-02T01:46:13;3.53;;;3.23;;
4646;SDS011;2336;47.822;7.564;2022-08-02T01:48:41;3.20;;;2.90;;
4646;SDS011;2336;47.822;7.564;2022-08-02T01:51:11;3.23;;;3.03;;
4646;SDS011;2336;47.822;7.564;2022-08-02T01:53:40;3.80;;;3.60;;
4646;SDS011;2336;47.822;7.564;2022-08-02T01:56:09;3.40;;;3.30;;
4646;SDS011;2336;47.822;7.564;2022-08-02T01:58:37;4.20;;;3.90;;
4646;SDS011;2336;47.822;7.564;2022-08-02T02:01:08;3.20;;;3.10;;
4646;SDS011;2336;47.822;7.564;2022-08-02T02:03:36;2.93;;;2.70;;
4646;SDS011;2336;47.822;7.564;2022-08-02T02:06:05;3.40;;;3.30;;
4646;SDS011;2336;47.822;7.564;2022-08-02T02:08:35;3.50;;;3.30;;
4646;SDS011;2336;47.822;7.564;2022-08-02T02:11:03;2.97;;;2.77;;
4646;SDS011;2336;47.822;7.564;2022-08-02T02:13:31;2.90;;;2.80;;
4646;SDS011;2336;47.822;7.564;2022-08-02T02:15:59;3.00;;;2.90;;
4646;SDS011;2336;47.822;7.564;2022-08-02T02:18:31;5.00;;;2.93;;
4646;SDS011;2336;47.822;7.564;2022-08-02T02:21:04;2.77;;;2.67;;
4646;SDS011;2336;47.822;7.564;2022-08-02T02:23:31;2.77;;;2.67;;
4646;SDS011;2336;47.822;7.564;2022-08-02T02:25:58;3.20;;;2.90;;
4646;SDS011;2336;47.822;7.564;2022-08-02T02:28:26;3.07;;;2.90;;
4646;SDS011;2336;47.822;7.564;2022-08-02T02:30:57;3.30;;;3.17;;
4646;SDS011;2336;47.822;7.564;2022-08-02T02:33:28;3.00;;;2.80;;
4646;SDS011;2336;47.822;7.564;2022-08-02T02:35:58;3.10;;;2.97;;
4646;SDS011;2336;47.822;7.564;2022-08-02T02:38:27;3.33;;;3.13;;
4646;SDS011;2336;47.822;7.564;2022-08-02T02:40:56;2.77;;;2.67;;
4646;SDS011;2336;47.822;7.564;2022-08-02T02:43:26;2.80;;;2.70;;
4646;SDS011;2336;47.822;7.564;2022-08-02T02:45:55;3.20;;;3.10;;
4646;SDS011;2336;47.822;7.564;2022-08-02T02:48:22;3.50;;;3.30;;
4646;SDS011;2336;47.822;7.564;2022-08-02T02:50:52;2.63;;;2.53;;
4646;SDS011;2336;47.822;7.564;2022-08-02T02:53:19;3.60;;;3.27;;
4646;SDS011;2336;47.822;7.564;2022-08-02T02:55:48;3.13;;;2.97;;
4646;SDS011;2336;47.822;7.564;2022-08-02T02:58:15;3.03;;;2.93;;
4646;SDS011;2336;47.822;7.564;2022-08-02T03:00:42;3.53;;;3.33;;
4646;SDS011;2336;47.822;7.564;2022-08-02T03:03:27;3.00;;;2.80;;
4646;SDS011;2336;47.822;7.564;2022-08-02T03:05:57;3.03;;;2.93;;
4646;SDS011;2336;47.822;7.564;2022-08-02T03:08:23;4.53;;;3.47;;
4646;SDS011;2336;47.822;7.564;2022-08-02T03:10:51;3.40;;;3.30;;
4646;SDS011;2336;47.822;7.564;2022-08-02T03:13:19;4.80;;;3.00;;
4646;SDS011;2336;47.822;7.564;2022-08-02T03:15:46;3.57;;;3.37;;
4646;SDS011;2336;47.822;7.564;2022-08-02T03:18:28;3.73;;;3.43;;
4646;SDS011;2336;47.822;7.564;2022-08-02T03:20:58;3.70;;;3.50;;
4646;SDS011;2336;47.822;7.564;2022-08-02T03:23:26;3.70;;;3.40;;
4646;SDS011;2336;47.822;7.564;2022-08-02T03:25:53;3.87;;;3.57;;
4646;SDS011;2336;47.822;7.564;2022-08-02T03:28:20;4.33;;;3.27;;
4646;SDS011;2336;47.822;7.564;2022-08-02T03:30:47;3.13;;;2.93;;
4646;SDS011;2336;47.822;7.564;2022-08-02T03:33:14;3.70;;;3.50;;
4646;SDS011;2336;47.822;7.564;2022-08-02T03:35:41;3.40;;;3.30;;
4646;SDS011;2336;47.822;7.564;2022-08-02T03:38:10;3.00;;;2.90;;
4646;SDS011;2336;47.822;7.564;2022-08-02T03:40:38;2.87;;;2.77;;
4646;SDS011;2336;47.822;7.564;2022-08-02T03:43:06;3.40;;;3.20;;
4646;SDS011;2336;47.822;7.564;2022-08-02T03:45:34;4.23;;;3.93;;
4646;SDS011;2336;47.822;7.564;2022-08-02T03:48:03;3.50;;;3.33;;
4646;SDS011;2336;47.822;7.564;2022-08-02T03:50:30;3.77;;;3.47;;
4646;SDS011;2336;47.822;7.564;2022-08-02T03:52:58;3.47;;;3.27;;
4646;SDS011;2336;47.822;7.564;2022-08-02T03:55:27;3.67;;;3.50;;
4646;SDS011;2336;47.822;7.564;2022-08-02T03:57:54;3.13;;;2.93;;
4646;SDS011;2336;47.822;7.564;2022-08-02T04:00:21;4.20;;;3.90;;
4646;SDS011;2336;47.822;7.564;2022-08-02T04:02:48;3.77;;;3.57;;
4646;SDS011;2336;47.822;7.564;2022-08-02T04:05:16;3.60;;;3.30;;
4646;SDS011;2336;47.822;7.564;2022-08-02T04:07:43;3.60;;;3.40;;
4646;SDS011;2336;47.822;7.564;2022-08-02T04:10:10;3.20;;;3.07;;
4646;SDS011;2336;47.822;7.564;2022-08-02T04:12:38;2.93;;;2.83;;
4646;SDS011;2336;47.822;7.564;2022-08-02T04:15:06;3.43;;;3.23;;
4646;SDS011;2336;47.822;7.564;2022-08-02T04:17:38;3.23;;;3.03;;
4646;SDS011;2336;47.822;7.564;2022-08-02T04:20:08;3.33;;;3.23;;
4646;SDS011;2336;47.822;7.564;2022-08-02T04:22:38;4.37;;;3.97;;
4646;SDS011;2336;47.822;7.564;2022-08-02T04:25:09;4.70;;;4.40;;
4646;SDS011;2336;47.822;7.564;2022-08-02T04:27:36;4.03;;;3.83;;
4646;SDS011;2336;47.822;7.564;2022-08-02T04:30:06;3.67;;;3.47;;
4646;SDS011;2336;47.822;7.564;2022-08-02T04:32:33;4.27;;;3.97;;
4646;SDS011;2336;47.822;7.564;2022-08-02T04:35:00;3.77;;;3.53;;
4646;SDS011;2336;47.822;7.564;2022-08-02T04:37:27;4.53;;;4.23;;
4646;SDS011;2336;47.822;7.564;2022-08-02T04:39:54;4.20;;;4.00;;
4646;SDS011;2336;47.822;7.564;2022-08-02T04:42:21;4.00;;;3.80;;
4646;SDS011;2336;47.822;7.564;2022-08-02T04:44:51;4.77;;;4.47;;
4646;SDS011;2336;47.822;7.564;2022-08-02T04:47:19;4.37;;;4.07;;
4646;SDS011;2336;47.822;7.564;2022-08-02T04:49:46;4.70;;;4.30;;
4646;SDS011;2336;47.822;7.564;2022-08-02T04:52:13;4.50;;;4.10;;
4646;SDS011;2336;47.822;7.564;2022-08-02T04:54:40;4.33;;;4.10;;
4646;SDS011;2336;47.822;7.564;2022-08-02T04:57:06;5.23;;;4.10;;
4646;SDS011;2336;47.822;7.564;2022-08-02T04:59:47;3.63;;;3.53;;
4646;SDS011;2336;47.822;7.564;2022-08-02T05:02:16;4.37;;;4.10;;
4646;SDS011;2336;47.822;7.564;2022-08-02T05:04:43;4.10;;;4.00;;
4646;SDS011;2336;47.822;7.564;2022-08-02T05:07:09;4.83;;;4.43;;
4646;SDS011;2336;47.822;7.564;2022-08-02T05:09:36;4.70;;;4.40;;
4646;SDS011;2336;47.822;7.564;2022-08-02T05:12:03;4.40;;;4.10;;
4646;SDS011;2336;47.822;7.564;2022-08-02T05:14:30;4.47;;;4.10;;
4646;SDS011;2336;47.822;7.564;2022-08-02T05:16:57;5.53;;;5.10;;
4646;SDS011;2336;47.822;7.564;2022-08-02T05:19:25;4.70;;;4.40;;
4646;SDS011;2336;47.822;7.564;2022-08-02T05:21:51;4.30;;;4.10;;
4646;SDS011;2336;47.822;7.564;2022-08-02T05:24:18;5.00;;;4.70;;
4646;SDS011;2336;47.822;7.564;2022-08-02T05:26:45;5.07;;;4.67;;
4646;SDS011;2336;47.822;7.564;2022-08-02T05:29:11;5.07;;;4.67;;
4646;SDS011;2336;47.822;7.564;2022-08-02T05:31:38;4.50;;;4.30;;
4646;SDS011;2336;47.822;7.564;2022-08-02T05:34:05;4.20;;;3.77;;
4646;SDS011;2336;47.822;7.564;2022-08-02T05:36:33;4.50;;;4.30;;
4646;SDS011;2336;47.822;7.564;2022-08-02T05:38:59;8.27;;;5.30;;
4646;SDS011;2336;47.822;7.564;2022-08-02T05:41:26;4.17;;;3.97;;
4646;SDS011;2336;47.822;7.564;2022-08-02T05:43:53;5.23;;;4.47;;
4646;SDS011;2336;47.822;7.564;2022-08-02T05:46:19;4.40;;;4.20;;
4646;SDS011;2336;47.822;7.564;2022-08-02T05:48:46;5.37;;;4.90;;
4646;SDS011;2336;47.822;7.564;2022-08-02T05:51:15;4.43;;;4.10;;
4646;SDS011;2336;47.822;7.564;2022-08-02T05:53:49;4.70;;;4.40;;
4646;SDS011;2336;47.822;7.564;2022-08-02T05:56:19;4.87;;;4.60;;
4646;SDS011;2336;47.822;7.564;2022-08-02T05:58:52;4.40;;;4.03;;
4646;SDS011;2336;47.822;7.564;2022-08-02T06:01:26;5.43;;;5.07;;
4646;SDS011;2336;47.822;7.564;2022-08-02T06:03:57;6.20;;;5.80;;
4646;SDS011;2336;47.822;7.564;2022-08-02T06:06:26;5.93;;;5.33;;
4646;SDS011;2336;47.822;7.564;2022-08-02T06:08:59;5.07;;;4.57;;
4646;SDS011;2336;47.822;7.564;2022-08-02T06:11:33;4.67;;;4.37;;
4646;SDS011;2336;47.822;7.564;2022-08-02T06:14:02;5.83;;;5.43;;
4646;SDS011;2336;47.822;7.564;2022-08-02T06:16:30;5.13;;;4.83;;
4646;SDS011;2336;47.822;7.564;2022-08-02T06:18:57;5.10;;;4.70;;
4646;SDS011;2336;47.822;7.564;2022-08-02T06:21:25;4.77;;;4.37;;
4646;SDS011;2336;47.822;7.564;2022-08-02T06:23:52;3.67;;;3.47;;
4646;SDS011;2336;47.822;7.564;2022-08-02T06:26:21;6.40;;;4.77;;
4646;SDS011;2336;47.822;7.564;2022-08-02T06:28:48;5.50;;;5.10;;
4646;SDS011;2336;47.822;7.564;2022-08-02T06:31:17;5.47;;;5.10;;
4646;SDS011;2336;47.822;7.564;2022-08-02T06:33:44;4.93;;;4.63;;
4646;SDS011;2336;47.822;7.564;2022-08-02T06:36:15;4.73;;;4.43;;
4646;SDS011;2336;47.822;7.564;2022-08-02T06:38:46;5.60;;;5.30;;
4646;SDS011;2336;47.822;7.564;2022-08-02T06:41:18;5.03;;;4.73;;
4646;SDS011;2336;47.822;7.564;2022-08-02T06:43:49;6.03;;;5.50;;
4646;SDS011;2336;47.822;7.564;2022-08-02T06:46:19;5.60;;;5.10;;
4646;SDS011;2336;47.822;7.564;2022-08-02T06:48:47;5.57;;;5.17;;
4646;SDS011;2336;47.822;7.564;2022-08-02T06:51:13;7.33;;;5.70;;
4646;SDS011;2336;47.822;7.564;2022-08-02T06:53:40;5.40;;;5.00;;
4646;SDS011;2336;47.822;7.564;2022-08-02T06:56:07;4.57;;;4.27;;
4646;SDS011;2336;47.822;7.564;2022-08-02T06:58:36;4.47;;;4.17;;
4646;SDS011;2336;47.822;7.564;2022-08-02T07:01:03;3.60;;;3.40;;
4646;SDS011;2336;47.822;7.564;2022-08-02T07:03:31;3.73;;;3.63;;
4646;SDS011;2336;47.822;7.564;2022-08-02T07:05:58;4.30;;;3.90;;
4646;SDS011;2336;47.822;7.564;2022-08-02T07:08:25;3.50;;;3.40;;
4646;SDS011;2336;47.822;7.564;2022-08-02T07:10:56;5.70;;;5.20;;
4646;SDS011;2336;47.822;7.564;2022-08-02T07:13:25;4.20;;;4.00;;
4646;SDS011;2336;47.822;7.564;2022-08-02T07:15:53;4.77;;;3.97;;
4646;SDS011;2336;47.822;7.564;2022-08-02T07:18:20;4.47;;;4.07;;
4646;SDS011;2336;47.822;7.564;2022-08-02T07:20:47;5.10;;;4.80;;
4646;SDS011;2336;47.822;7.564;2022-08-02T07:23:14;6.20;;;4.97;;
4646;SDS011;2336;47.822;7.564;2022-08-02T07:25:41;4.90;;;4.50;;
4646;SDS011;2336;47.822;7.564;2022-08-02T07:28:09;4.70;;;4.47;;
4646;SDS011;2336;47.822;7.564;2022-08-02T07:30:36;5.53;;;5.07;;
4646;SDS011;2336;47.822;7.564;2022-08-02T07:33:04;4.50;;;4.10;;
4646;SDS011;2336;47.822;7.564;2022-08-02T07:35:31;4.93;;;4.70;;
4646;SDS011;2336;47.822;7.564;2022-08-02T07:37:58;4.20;;;4.00;;
4646;SDS011;2336;47.822;7.564;2022-08-02T07:40:25;3.43;;;3.13;;
4646;SDS011;2336;47.822;7.564;2022-08-02T07:42:53;9.00;;;4.37;;
4646;SDS011;2336;47.822;7.564;2022-08-02T07:45:21;5.93;;;4.43;;
4646;SDS011;2336;47.822;7.564;2022-08-02T07:47:48;4.70;;;4.40;;
4646;SDS011;2336;47.822;7.564;2022-08-02T07:50:18;6.17;;;4.73;;
4646;SDS011;2336;47.822;7.564;2022-08-02T07:52:46;3.77;;;3.50;;
4646;SDS011;2336;47.822;7.564;2022-08-02T07:55:13;3.70;;;3.50;;
4646;SDS011;2336;47.822;7.564;2022-08-02T07:57:41;3.77;;;3.47;;
4646;SDS011;2336;47.822;7.564;2022-08-02T08:00:09;6.30;;;3.60;;
4646;SDS011;2336;47.822;7.564;2022-08-02T08:02:37;3.80;;;3.50;;
4646;SDS011;2336;47.822;7.564;2022-08-02T08:05:04;3.33;;;3.03;;
4646;SDS011;2336;47.822;7.564;2022-08-02T08:07:33;4.33;;;3.13;;
4646;SDS011;2336;47.822;7.564;2022-08-02T08:10:00;3.23;;;2.93;;
4646;SDS011;2336;47.822;7.564;2022-08-02T08:12:28;2.60;;;2.50;;
4646;SDS011;2336;47.822;7.564;2022-08-02T08:14:54;3.30;;;3.00;;
4646;SDS011;2336;47.822;7.564;2022-08-02T08:17:21;3.10;;;2.90;;
4646;SDS011;2336;47.822;7.564;2022-08-02T08:19:48;4.10;;;2.40;;
4646;SDS011;2336;47.822;7.564;2022-08-02T08:22:15;2.30;;;2.07;;
4646;SDS011;2336;47.822;7.564;2022-08-02T08:24:43;2.60;;;2.50;;
4646;SDS011;2336;47.822;7.564;2022-08-02T08:27:10;3.50;;;2.50;;
4646;SDS011;2336;47.822;7.564;2022-08-02T08:29:38;4.33;;;2.63;;
4646;SDS011;2336;47.822;7.564;2022-08-02T08:32:06;2.57;;;2.47;;
4646;SDS011;2336;47.822;7.564;2022-08-02T08:34:33;2.50;;;2.30;;
4646;SDS011;2336;47.822;7.564;2022-08-02T08:37:00;2.30;;;2.20;;
4646;SDS011;2336;47.822;7.564;2022-08-02T08:39:27;4.77;;;2.37;;
4646;SDS011;2336;47.822;7.564;2022-08-02T08:41:56;2.17;;;2.07;;
4646;SDS011;2336;47.822;7.564;2022-08-02T08:44:23;2.27;;;2.10;;
4646;SDS011;2336;47.822;7.564;2022-08-02T08:46:51;2.30;;;2.20;;
4646;SDS011;2336;47.822;7.564;2022-08-02T08:49:22;5.03;;;2.20;;
4646;SDS011;2336;47.822;7.564;2022-08-02T08:51:52;2.77;;;2.40;;
4646;SDS011;2336;47.822;7.564;2022-08-02T08:54:22;4.20;;;2.00;;
4646;SDS011;2336;47.822;7.564;2022-08-02T08:56:50;3.30;;;2.23;;
4646;SDS011;2336;47.822;7.564;2022-08-02T08:59:20;3.13;;;2.47;;
4646;SDS011;2336;47.822;7.564;2022-08-02T09:01:47;3.07;;;2.20;;
4646;SDS011;2336;47.822;7.564;2022-08-02T09:04:15;2.23;;;2.10;;
4646;SDS011;2336;47.822;7.564;2022-08-02T09:06:42;2.00;;;1.70;;
4646;SDS011;2336;47.822;7.564;2022-08-02T09:09:09;2.50;;;1.83;;
4646;SDS011;2336;47.822;7.564;2022-08-02T09:11:36;5.90;;;1.90;;
4646;SDS011;2336;47.822;7.564;2022-08-02T09:14:02;1.70;;;1.70;;
4646;SDS011;2336;47.822;7.564;2022-08-02T09:16:32;2.10;;;2.00;;
4646;SDS011;2336;47.822;7.564;2022-08-02T09:18:59;5.73;;;1.90;;
4646;SDS011;2336;47.822;7.564;2022-08-02T09:21:34;1.70;;;1.70;;
4646;SDS011;2336;47.822;7.564;2022-08-02T09:24:01;1.83;;;1.73;;
4646;SDS011;2336;47.822;7.564;2022-08-02T09:26:40;5.33;;;2.10;;
4646;SDS011;2336;47.822;7.564;2022-08-02T09:29:07;2.20;;;2.00;;
4646;SDS011;2336;47.822;7.564;2022-08-02T09:31:35;3.60;;;1.87;;
4646;SDS011;2336;47.822;7.564;2022-08-02T09:34:02;1.73;;;1.63;;
4646;SDS011;2336;47.822;7.564;2022-08-02T09:36:36;2.40;;;1.60;;
4646;SDS011;2336;47.822;7.564;2022-08-02T09:39:05;2.77;;;1.83;;
4646;SDS011;2336;47.822;7.564;2022-08-02T09:41:33;2.37;;;2.17;;
4646;SDS011;2336;47.822;7.564;2022-08-02T09:44:02;1.93;;;1.83;;
4646;SDS011;2336;47.822;7.564;2022-08-02T09:46:31;4.27;;;1.80;;
4646;SDS011;2336;47.822;7.564;2022-08-02T09:49:03;2.20;;;2.00;;
4646;SDS011;2336;47.822;7.564;2022-08-02T09:51:32;2.60;;;2.00;;
4646;SDS011;2336;47.822;7.564;2022-08-02T09:54:00;13.30;;;2.50;;
4646;SDS011;2336;47.822;7.564;2022-08-02T09:56:38;2.77;;;1.50;;
4646;SDS011;2336;47.822;7.564;2022-08-02T09:59:07;12.20;;;1.80;;
4646;SDS011;2336;47.822;7.564;2022-08-02T10:01:35;1.47;;;1.47;;
4646;SDS011;2336;47.822;7.564;2022-08-02T10:04:05;2.30;;;2.10;;
4646;SDS011;2336;47.822;7.564;2022-08-02T10:06:34;1.60;;;1.60;;
4646;SDS011;2336;47.822;7.564;2022-08-02T10:09:02;1.80;;;1.80;;
4646;SDS011;2336;47.822;7.564;2022-08-02T10:11:29;1.67;;;1.57;;
4646;SDS011;2336;47.822;7.564;2022-08-02T10:13:57;1.50;;;1.50;;
4646;SDS011;2336;47.822;7.564;2022-08-02T10:16:24;1.50;;;1.40;;
4646;SDS011;2336;47.822;7.564;2022-08-02T10:18:52;4.87;;;1.60;;
4646;SDS011;2336;47.822;7.564;2022-08-02T10:21:23;6.47;;;1.90;;
4646;SDS011;2336;47.822;7.564;2022-08-02T10:23:55;2.67;;;1.80;;
4646;SDS011;2336;47.822;7.564;2022-08-02T10:26:29;2.37;;;1.80;;
4646;SDS011;2336;47.822;7.564;2022-08-02T10:28:57;3.60;;;1.53;;
4646;SDS011;2336;47.822;7.564;2022-08-02T10:31:26;1.80;;;1.70;;
4646;SDS011;2336;47.822;7.564;2022-08-02T10:33:59;2.60;;;2.10;;
4646;SDS011;2336;47.822;7.564;2022-08-02T10:36:29;1.53;;;1.53;;
4646;SDS011;2336;47.822;7.564;2022-08-02T10:38:59;3.33;;;1.80;;
4646;SDS011;2336;47.822;7.564;2022-08-02T10:44:19;5.90;;;2.20;;
4646;SDS011;2336;47.822;7.564;2022-08-02T10:49:49;5.70;;;1.97;;
4646;SDS011;2336;47.822;7.564;2022-08-02T10:52:19;1.70;;;1.60;;
4646;SDS011;2336;47.822;7.564;2022-08-02T10:54:47;1.47;;;1.37;;
4646;SDS011;2336;47.822;7.564;2022-08-02T10:57:19;2.43;;;1.83;;
4646;SDS011;2336;47.822;7.564;2022-08-02T10:59:48;2.50;;;1.80;;
4646;SDS011;2336;47.822;7.564;2022-08-02T11:05:14;1.40;;;1.40;;
4646;SDS011;2336;47.822;7.564;2022-08-02T11:07:45;1.40;;;1.40;;
4646;SDS011;2336;47.822;7.564;2022-08-02T11:10:30;2.00;;;1.67;;
4646;SDS011;2336;47.822;7.564;2022-08-02T11:13:02;1.63;;;1.53;;
4646;SDS011;2336;47.822;7.564;2022-08-02T11:15:46;1.43;;;1.33;;
4646;SDS011;2336;47.822;7.564;2022-08-02T11:21:27;1.40;;;1.40;;
4646;SDS011;2336;47.822;7.564;2022-08-02T11:23:56;1.10;;;1.10;;
4646;SDS011;2336;47.822;7.564;2022-08-02T11:26:50;1.30;;;1.20;;
4646;SDS011;2336;47.822;7.564;2022-08-02T11:29:17;2.00;;;1.30;;
4646;SDS011;2336;47.822;7.564;2022-08-02T11:31:44;1.20;;;1.10;;
4646;SDS011;2336;47.822;7.564;2022-08-02T11:34:11;1.37;;;1.27;;
4646;SDS011;2336;47.822;7.564;2022-08-02T11:36:42;1.10;;;1.10;;
4646;SDS011;2336;47.822;7.564;2022-08-02T11:39:13;1.43;;;1.33;;
4646;SDS011;2336;47.822;7.564;2022-08-02T11:41:42;3.27;;;1.20;;
4646;SDS011;2336;47.822;7.564;2022-08-02T11:44:13;0.80;;;0.80;;
4646;SDS011;2336;47.822;7.564;2022-08-02T11:46:40;1.10;;;1.10;;
4646;SDS011;2336;47.822;7.564;2022-08-02T11:49:10;1.00;;;1.00;;
4646;SDS011;2336;47.822;7.564;2022-08-02T11:51:53;1.33;;;1.20;;
4646;SDS011;2336;47.822;7.564;2022-08-02T11:54:31;1.37;;;1.20;;
4646;SDS011;2336;47.822;7.564;2022-08-02T11:57:15;2.20;;;0.90;;
4646;SDS011;2336;47.822;7.564;2022-08-02T11:59:43;5.03;;;1.23;;
4646;SDS011;2336;47.822;7.564;2022-08-02T12:02:11;3.60;;;1.23;;
4646;SDS011;2336;47.822;7.564;2022-08-02T12:04:39;1.10;;;1.00;;
4646;SDS011;2336;47.822;7.564;2022-08-02T12:07:07;1.73;;;1.10;;
4646;SDS011;2336;47.822;7.564;2022-08-02T12:09:35;1.40;;;1.30;;
4646;SDS011;2336;47.822;7.564;2022-08-02T12:12:03;2.00;;;1.00;;
4646;SDS011;2336;47.822;7.564;2022-08-02T12:14:30;1.03;;;0.93;;
4646;SDS011;2336;47.822;7.564;2022-08-02T12:17:06;1.67;;;1.10;;
4646;SDS011;2336;47.822;7.564;2022-08-02T12:19:50;1.67;;;1.10;;
4646;SDS011;2336;47.822;7.564;2022-08-02T12:22:17;2.20;;;1.00;;
4646;SDS011;2336;47.822;7.564;2022-08-02T12:24:48;1.03;;;1.03;;
4646;SDS011;2336;47.822;7.564;2022-08-02T12:27:32;0.80;;;0.80;;
4646;SDS011;2336;47.822;7.564;2022-08-02T12:30:01;0.80;;;0.80;;
4646;SDS011;2336;47.822;7.564;2022-08-02T12:32:30;1.00;;;0.80;;
4646;SDS011;2336;47.822;7.564;2022-08-02T12:35:01;0.97;;;0.97;;
4646;SDS011;2336;47.822;7.564;2022-08-02T12:37:30;0.70;;;0.70;;
4646;SDS011;2336;47.822;7.564;2022-08-02T12:40:02;1.57;;;0.77;;
4646;SDS011;2336;47.822;7.564;2022-08-02T12:42:46;0.80;;;0.80;;
4646;SDS011;2336;47.822;7.564;2022-08-02T12:45:13;0.60;;;0.60;;
4646;SDS011;2336;47.822;7.564;2022-08-02T12:47:43;0.83;;;0.83;;
4646;SDS011;2336;47.822;7.564;2022-08-02T12:50:11;0.80;;;0.80;;
4646;SDS011;2336;47.822;7.564;2022-08-02T12:52:39;2.10;;;0.93;;
4646;SDS011;2336;47.822;7.564;2022-08-02T12:55:21;0.80;;;0.80;;
4646;SDS011;2336;47.822;7.564;2022-08-02T12:57:51;2.37;;;0.90;;
4646;SDS011;2336;47.822;7.564;2022-08-02T13:00:23;1.07;;;0.70;;
4646;SDS011;2336;47.822;7.564;2022-08-02T13:02:52;0.73;;;0.73;;
4646;SDS011;2336;47.822;7.564;2022-08-02T13:05:18;0.80;;;0.80;;
4646;SDS011;2336;47.822;7.564;2022-08-02T13:07:45;0.90;;;0.90;;
4646;SDS011;2336;47.822;7.564;2022-08-02T13:10:12;0.80;;;0.80;;
4646;SDS011;2336;47.822;7.564;2022-08-02T13:12:41;4.53;;;0.93;;
4646;SDS011;2336;47.822;7.564;2022-08-02T13:15:08;0.97;;;0.77;;
4646;SDS011;2336;47.822;7.564;2022-08-02T13:17:36;0.90;;;0.77;;
4646;SDS011;2336;47.822;7.564;2022-08-02T13:20:03;1.50;;;0.83;;
4646;SDS011;2336;47.822;7.564;2022-08-02T13:22:30;0.90;;;0.80;;
4646;SDS011;2336;47.822;7.564;2022-08-02T13:24:57;2.63;;;1.30;;
4646;SDS011;2336;47.822;7.564;2022-08-02T13:27:24;0.97;;;0.80;;
4646;SDS011;2336;47.822;7.564;2022-08-02T13:29:53;0.80;;;0.80;;
4646;SDS011;2336;47.822;7.564;2022-08-02T13:32:21;3.63;;;1.00;;
4646;SDS011;2336;47.822;7.564;2022-08-02T13:34:49;0.90;;;0.90;;
4646;SDS011;2336;47.822;7.564;2022-08-02T13:37:16;1.07;;;0.87;;
4646;SDS011;2336;47.822;7.564;2022-08-02T13:39:43;1.10;;;0.80;;
4646;SDS011;2336;47.822;7.564;2022-08-02T13:42:10;0.80;;;0.80;;
4646;SDS011;2336;47.822;7.564;2022-08-02T13:44:37;1.23;;;0.80;;
4646;SDS011;2336;47.822;7.564;2022-08-02T13:47:05;2.30;;;1.20;;
4646;SDS011;2336;47.822;7.564;2022-08-02T13:49:32;0.73;;;0.73;;
4646;SDS011;2336;47.822;7.564;2022-08-02T13:51:59;2.20;;;0.90;;
4646;SDS011;2336;47.822;7.564;2022-08-02T13:54:26;1.00;;;0.90;;
4646;SDS011;2336;47.822;7.564;2022-08-02T13:56:52;0.90;;;0.90;;
4646;SDS011;2336;47.822;7.564;2022-08-02T13:59:19;2.10;;;0.80;;
4646;SDS011;2336;47.822;7.564;2022-08-02T14:01:46;1.10;;;1.00;;
4646;SDS011;2336;47.822;7.564;2022-08-02T14:04:14;1.37;;;1.03;;
4646;SDS011;2336;47.822;7.564;2022-08-02T14:06:40;2.50;;;0.90;;
4646;SDS011;2336;47.822;7.564;2022-08-02T14:09:07;1.10;;;1.00;;
4646;SDS011;2336;47.822;7.564;2022-08-02T14:11:34;1.20;;;0.90;;
4646;SDS011;2336;47.822;7.564;2022-08-02T14:14:01;1.10;;;1.10;;
4646;SDS011;2336;47.822;7.564;2022-08-02T14:16:27;1.47;;;1.27;;
4646;SDS011;2336;47.822;7.564;2022-08-02T14:18:54;1.53;;;1.00;;
4646;SDS011;2336;47.822;7.564;2022-08-02T14:21:23;1.20;;;1.10;;
4646;SDS011;2336;47.822;7.564;2022-08-02T14:23:49;1.83;;;1.00;;
4646;SDS011;2336;47.822;7.564;2022-08-02T14:26:16;4.43;;;1.40;;
4646;SDS011;2336;47.822;7.564;2022-08-02T14:28:43;1.00;;;1.00;;
4646;SDS011;2336;47.822;7.564;2022-08-02T14:31:10;6.47;;;1.20;;
4646;SDS011;2336;47.822;7.564;2022-08-02T14:33:36;0.90;;;0.90;;
4646;SDS011;2336;47.822;7.564;2022-08-02T14:36:04;2.93;;;1.07;;
4646;SDS011;2336;47.822;7.564;2022-08-02T14:38:32;1.20;;;1.20;;
4646;SDS011;2336;47.822;7.564;2022-08-02T14:41:01;1.83;;;1.10;;
4646;SDS011;2336;47.822;7.564;2022-08-02T14:43:28;0.93;;;0.93;;
4646;SDS011;2336;47.822;7.564;2022-08-02T14:46:12;1.07;;;1.07;;
4646;SDS011;2336;47.822;7.564;2022-08-02T14:48:39;1.00;;;0.97;;
4646;SDS011;2336;47.822;7.564;2022-08-02T14:51:06;1.00;;;1.00;;
4646;SDS011;2336;47.822;7.564;2022-08-02T14:53:34;0.80;;;0.80;;
4646;SDS011;2336;47.822;7.564;2022-08-02T14:56:01;0.93;;;0.90;;
4646;SDS011;2336;47.822;7.564;2022-08-02T14:58:27;4.23;;;0.80;;
4646;SDS011;2336;47.822;7.564;2022-08-02T15:00:54;2.30;;;0.90;;
4646;SDS011;2336;47.822;7.564;2022-08-02T15:03:21;2.57;;;1.10;;
4646;SDS011;2336;47.822;7.564;2022-08-02T15:05:48;1.00;;;1.00;;
4646;SDS011;2336;47.822;7.564;2022-08-02T15:08:14;0.93;;;0.93;;
4646;SDS011;2336;47.822;7.564;2022-08-02T15:10:43;0.87;;;0.87;;
4646;SDS011;2336;47.822;7.564;2022-08-02T15:13:10;2.50;;;0.90;;
4646;SDS011;2336;47.822;7.564;2022-08-02T15:15:37;0.80;;;0.80;;
4646;SDS011;2336;47.822;7.564;2022-08-02T15:18:04;1.10;;;1.10;;
4646;SDS011;2336;47.822;7.564;2022-08-02T15:20:31;2.00;;;1.07;;
4646;SDS011;2336;47.822;7.564;2022-08-02T15:22:57;5.20;;;1.00;;
4646;SDS011;2336;47.822;7.564;2022-08-02T15:25:24;0.90;;;0.90;;
4646;SDS011;2336;47.822;7.564;2022-08-02T15:27:52;5.13;;;1.07;;
4646;SDS011;2336;47.822;7.564;2022-08-02T15:30:19;1.00;;;1.00;;
4646;SDS011;2336;47.822;7.564;2022-08-02T15:32:46;0.90;;;0.90;;
4646;SDS011;2336;47.822;7.564;2022-08-02T15:35:14;0.80;;;0.80;;
4646;SDS011;2336;47.822;7.564;2022-08-02T15:37:41;0.90;;;0.90;;
4646;SDS011;2336;47.822;7.564;2022-08-02T15:40:08;1.03;;;1.03;;
4646;SDS011;2336;47.822;7.564;2022-08-02T15:42:35;1.10;;;1.10;;